Time;durP1;ratioP1;P1;durP2;ratioP2;P2;SDS_P1;SDS_P2;PMS_P1;PMS_P2;Temp;Humidity;BMP_temperature;BMP_pressure;BME280_temperature;BME280_humidity;BME280_pressure;Samples;Min_cycle;Max_cycle;Signal;HPM_P1;HPM_P2
2021/01/10 00:02:28;;;;;;;28.38;18.58;;;7.00;99.30;;;;;;5052076;28;20393;-74
2021/01/10 00:04:54;;;;;;;27.60;18.90;;;7.00;99.30;;;;;;5054307;28;20170;-72
2021/01/10 00:07:26;;;;;;;25.80;18.13;;;7.00;99.30;;;;;;5053800;28;20416;-74
2021/01/10 00:09:52;;;;;;;26.25;19.63;;;7.00;99.30;;;;;;5054590;28;20484;-72
2021/01/10 00:12:23;;;;;;;26.03;18.13;;;7.10;99.20;;;;;;5052171;28;20229;-72
2021/01/10 00:14:49;;;;;;;27.73;18.30;;;7.10;99.00;;;;;;5054237;28;20398;-72
2021/01/10 00:17:15;;;;;;;27.53;18.80;;;7.10;98.90;;;;;;5052087;28;20745;-72
2021/01/10 00:19:45;;;;;;;28.90;18.27;;;7.10;98.90;;;;;;5085931;28;20452;-73
2021/01/10 00:22:17;;;;;;;26.50;19.60;;;7.20;98.90;;;;;;5052524;28;20210;-73
2021/01/10 00:24:42;;;;;;;27.93;19.07;;;7.10;98.90;;;;;;5053645;28;20392;-72
2021/01/10 00:27:13;;;;;;;29.33;18.57;;;7.20;98.80;;;;;;5086920;28;20453;-73
2021/01/10 00:29:42;;;;;;;32.60;19.50;;;7.30;98.90;;;;;;5065679;28;20488;-72
2021/01/10 00:32:08;;;;;;;30.57;20.33;;;7.20;98.70;;;;;;5034139;28;20496;-73
2021/01/10 00:34:33;;;;;;;33.77;21.23;;;7.20;98.70;;;;;;5048231;28;20508;-73
2021/01/10 00:36:59;;;;;;;39.37;20.50;;;7.20;98.70;;;;;;5053928;28;20290;-74
2021/01/10 00:39:25;;;;;;;28.87;19.80;;;7.20;98.70;;;;;;5053079;28;20227;-76
2021/01/10 00:41:51;;;;;;;29.37;19.60;;;7.20;98.80;;;;;;5054428;28;20499;-74
2021/01/10 00:44:16;;;;;;;33.87;19.80;;;7.20;98.80;;;;;;5054271;28;20186;-73
2021/01/10 00:46:42;;;;;;;34.77;20.97;;;7.20;98.90;;;;;;5053508;28;20194;-74
2021/01/10 00:49:08;;;;;;;35.90;19.20;;;7.20;98.80;;;;;;5051909;28;20399;-74
2021/01/10 00:51:34;;;;;;;30.53;20.57;;;7.10;98.80;;;;;;5054940;28;20249;-74
2021/01/10 00:54:00;;;;;;;32.00;20.20;;;7.10;99.00;;;;;;5054446;28;20428;-73
2021/01/10 00:56:26;;;;;;;27.00;19.93;;;7.10;99.20;;;;;;5052675;28;20236;-73
2021/01/10 00:58:52;;;;;;;32.00;20.13;;;7.10;99.10;;;;;;5053571;28;20392;-73
2021/01/10 01:01:18;;;;;;;29.08;18.70;;;7.10;99.20;;;;;;5054317;28;20257;-74
2021/01/10 01:03:46;;;;;;;31.40;19.87;;;7.10;99.20;;;;;;5054241;28;20281;-73
2021/01/10 01:06:12;;;;;;;32.23;20.57;;;7.00;99.30;;;;;;5053120;28;20867;-73
2021/01/10 01:08:38;;;;;;;30.17;20.70;;;7.00;99.50;;;;;;5050324;28;20401;-73
2021/01/10 01:11:04;;;;;;;28.20;18.93;;;7.00;99.50;;;;;;5053634;28;20174;-73
2021/01/10 01:13:30;;;;;;;27.67;18.97;;;7.00;99.30;;;;;;5053287;28;20264;-73
2021/01/10 01:15:55;;;;;;;27.97;19.90;;;7.00;99.40;;;;;;5053260;28;20516;-73
2021/01/10 01:18:21;;;;;;;29.37;21.33;;;7.00;99.50;;;;;;5052750;28;20183;-73
2021/01/10 01:20:47;;;;;;;33.40;21.47;;;7.00;99.50;;;;;;5052340;28;20622;-73
2021/01/10 01:23:13;;;;;;;29.33;18.83;;;7.10;99.50;;;;;;5053187;28;20638;-73
2021/01/10 01:25:38;;;;;;;29.87;18.67;;;7.10;99.40;;;;;;5051975;28;20199;-73
2021/01/10 01:28:08;;;;;;;28.85;20.05;;;7.00;99.30;;;;;;5051850;28;20259;-73
2021/01/10 01:30:33;;;;;;;32.08;19.13;;;7.00;99.30;;;;;;5052105;28;20210;-73
2021/01/10 01:32:59;;;;;;;26.07;17.60;;;7.10;99.40;;;;;;5052910;28;20205;-73
2021/01/10 01:35:25;;;;;;;27.23;18.63;;;7.10;99.30;;;;;;5051049;28;20586;-74
2021/01/10 01:37:51;;;;;;;25.93;18.13;;;7.10;99.20;;;;;;5053319;28;20171;-73
2021/01/10 01:40:16;;;;;;;29.97;19.90;;;7.10;99.20;;;;;;5053565;28;20174;-73
2021/01/10 01:42:45;;;;;;;27.10;18.50;;;7.10;99.30;;;;;;5052079;28;20207;-73
2021/01/10 01:45:11;;;;;;;30.30;19.65;;;7.10;99.40;;;;;;5053117;28;20618;-73
2021/01/10 01:47:39;;;;;;;27.70;19.47;;;7.10;99.40;;;;;;5084124;28;20216;-73
2021/01/10 01:50:06;;;;;;;31.40;19.03;;;7.10;99.30;;;;;;5052454;28;20395;-75
2021/01/10 01:52:33;;;;;;;28.10;18.87;;;7.10;99.30;;;;;;5051442;28;20381;-73
2021/01/10 01:54:59;;;;;;;34.13;22.40;;;7.10;99.30;;;;;;5050843;28;20893;-76
2021/01/10 01:57:24;;;;;;;30.17;19.73;;;7.10;99.30;;;;;;5052401;28;20177;-75
2021/01/10 01:59:50;;;;;;;33.47;20.20;;;7.10;99.30;;;;;;5051949;28;20389;-73
2021/01/10 02:02:16;;;;;;;35.83;21.20;;;7.10;99.20;;;;;;5052097;28;20396;-73
2021/01/10 02:05:01;;;;;;;32.27;21.20;;;7.10;99.60;;;;;;5051586;28;20547;-73
2021/01/10 02:07:38;;;;;;;30.40;19.77;;;7.10;99.20;;;;;;5050642;28;20507;-76
2021/01/10 02:10:12;;;;;;;29.10;19.33;;;7.10;99.30;;;;;;5062403;28;20756;-73
2021/01/10 02:12:51;;;;;;;37.72;21.23;;;7.00;99.30;;;;;;5064599;28;20402;-73
2021/01/10 02:15:21;;;;;;;27.53;19.67;;;7.00;99.40;;;;;;5060490;28;20717;-74
2021/01/10 02:17:49;;;;;;;32.03;19.33;;;7.00;99.40;;;;;;5056865;28;20963;-74
2021/01/10 02:20:31;;;;;;;31.10;19.90;;;7.00;99.50;;;;;;5056889;28;20751;-73
2021/01/10 02:23:21;;;;;;;30.97;19.20;;;7.00;99.50;;;;;;5060178;28;20729;-73
2021/01/10 02:25:49;;;;;;;33.58;20.25;;;6.90;99.70;;;;;;5055626;28;20414;-73
2021/01/10 02:28:21;;;;;;;32.75;20.73;;;6.90;99.90;;;;;;5059504;28;20181;-74
2021/01/10 02:30:48;;;;;;;32.10;19.70;;;6.90;99.90;;;;;;5056658;28;20304;-74
2021/01/10 02:33:45;;;;;;;31.33;20.05;;;6.90;99.90;;;;;;5059407;28;20423;-71
2021/01/10 02:36:38;;;;;;;33.65;18.40;;;6.90;99.90;;;;;;5054109;28;20215;-71
2021/01/10 02:39:20;;;;;;;40.67;21.10;;;6.90;99.80;;;;;;5062339;28;20224;-72
2021/01/10 02:41:49;;;;;;;31.55;18.92;;;6.90;99.70;;;;;;5067639;28;20187;-71
2021/01/10 02:44:26;;;;;;;33.63;20.83;;;6.90;99.60;;;;;;5067444;28;20182;-71
2021/01/10 02:46:53;;;;;;;33.37;20.57;;;6.90;99.50;;;;;;5064524;28;20722;-74
2021/01/10 02:49:20;;;;;;;29.23;18.60;;;6.90;99.50;;;;;;5066334;28;20423;-74
2021/01/10 02:51:49;;;;;;;32.72;19.70;;;7.00;99.40;;;;;;5067331;28;21000;-74
2021/01/10 02:54:16;;;;;;;27.42;19.00;;;7.00;99.40;;;;;;5067495;28;20637;-74
2021/01/10 02:57:15;;;;;;;32.65;19.65;;;7.00;99.10;;;;;;5065118;28;20283;-74
2021/01/10 02:59:43;;;;;;;33.88;18.63;;;7.00;99.20;;;;;;5065663;28;20196;-71
2021/01/10 03:02:11;;;;;;;29.85;18.67;;;7.00;99.10;;;;;;5064169;28;20260;-72
2021/01/10 03:04:37;;;;;;;28.50;18.23;;;6.90;99.20;;;;;;5065515;28;20690;-72
2021/01/10 03:07:05;;;;;;;29.47;17.43;;;7.00;99.20;;;;;;5066750;28;20208;-71
2021/01/10 03:09:31;;;;;;;29.08;19.00;;;7.00;99.10;;;;;;5065725;28;20719;-72
2021/01/10 03:12:25;;;;;;;27.43;17.07;;;6.90;99.10;;;;;;5066609;28;20199;-72
2021/01/10 03:14:56;;;;;;;30.70;18.20;;;6.90;99.20;;;;;;5096323;28;20197;-72
2021/01/10 03:17:37;;;;;;;34.43;20.40;;;6.90;99.30;;;;;;5065713;28;20412;-72
2021/01/10 03:20:06;;;;;;;28.73;18.23;;;6.90;99.30;;;;;;5067588;28;20455;-72
2021/01/10 03:22:32;;;;;;;32.47;19.65;;;6.90;99.40;;;;;;5065795;28;20424;-73
2021/01/10 03:24:58;;;;;;;34.37;20.27;;;6.90;99.30;;;;;;5066422;28;20181;-72
2021/01/10 03:27:24;;;;;;;31.80;20.20;;;6.90;99.40;;;;;;5068021;28;20394;-73
2021/01/10 03:29:49;;;;;;;35.50;20.77;;;6.90;99.50;;;;;;5065661;28;20408;-72
2021/01/10 03:32:15;;;;;;;34.37;20.57;;;6.90;99.60;;;;;;5065932;28;20625;-73
2021/01/10 03:34:41;;;;;;;33.53;22.03;;;6.90;99.60;;;;;;5067189;28;20633;-72
2021/01/10 03:37:07;;;;;;;34.23;20.13;;;7.00;99.60;;;;;;5064770;28;20210;-72
2021/01/10 03:39:34;;;;;;;35.83;20.73;;;6.90;99.50;;;;;;5066013;28;20471;-73
2021/01/10 03:41:59;;;;;;;38.05;22.45;;;6.90;99.30;;;;;;5067666;28;20412;-73
2021/01/10 03:44:25;;;;;;;33.83;20.13;;;6.90;99.20;;;;;;5064193;28;20189;-74
2021/01/10 03:46:52;;;;;;;35.60;21.97;;;7.00;99.10;;;;;;5066469;28;20574;-72
2021/01/10 03:49:18;;;;;;;36.35;20.85;;;7.00;99.30;;;;;;5067371;28;20178;-73
2021/01/10 03:51:43;;;;;;;32.70;21.27;;;7.00;99.40;;;;;;5062005;28;20243;-73
2021/01/10 03:54:09;;;;;;;36.70;21.13;;;6.90;99.30;;;;;;5062401;28;20416;-73
2021/01/10 03:56:35;;;;;;;32.87;20.73;;;6.90;99.40;;;;;;5062932;28;20198;-72
2021/01/10 03:59:01;;;;;;;29.63;18.90;;;6.90;99.40;;;;;;5062508;28;21752;-73
2021/01/10 04:01:27;;;;;;;33.80;19.80;;;6.90;99.30;;;;;;5063933;28;20399;-74
2021/01/10 04:03:52;;;;;;;38.30;21.73;;;6.90;99.30;;;;;;5062756;28;20183;-72
2021/01/10 04:06:18;;;;;;;35.50;20.60;;;6.90;99.30;;;;;;5062734;28;20847;-72
2021/01/10 04:08:47;;;;;;;36.20;19.23;;;6.90;99.20;;;;;;5063618;28;20260;-72
2021/01/10 04:11:14;;;;;;;32.30;18.73;;;7.00;99.20;;;;;;5063293;28;20774;-72
2021/01/10 04:13:40;;;;;;;31.23;18.87;;;6.90;99.10;;;;;;5061597;28;20391;-72
2021/01/10 04:16:06;;;;;;;31.00;19.03;;;7.00;99.10;;;;;;5063790;28;20426;-72
2021/01/10 04:18:33;;;;;;;35.53;18.63;;;6.90;99.00;;;;;;5061905;28;20554;-72
2021/01/10 04:21:01;;;;;;;31.30;20.02;;;6.90;99.10;;;;;;5061263;28;20778;-72
2021/01/10 04:23:27;;;;;;;35.80;19.13;;;6.90;99.10;;;;;;5060986;28;20191;-74
2021/01/10 04:25:52;;;;;;;38.33;21.37;;;6.90;99.00;;;;;;5062457;28;20408;-73
2021/01/10 04:28:18;;;;;;;31.03;19.53;;;6.90;99.00;;;;;;5056671;28;20652;-72
2021/01/10 04:30:44;;;;;;;33.77;19.30;;;6.90;99.10;;;;;;5058540;28;20203;-72
2021/01/10 04:33:09;;;;;;;35.37;19.90;;;6.90;99.20;;;;;;5054238;28;20206;-72
2021/01/10 04:35:35;;;;;;;30.30;18.53;;;6.90;99.30;;;;;;5052621;28;20206;-72
2021/01/10 04:38:01;;;;;;;30.47;19.50;;;6.90;99.30;;;;;;5053937;28;20249;-72
2021/01/10 04:40:27;;;;;;;33.53;20.13;;;6.90;99.30;;;;;;5052727;28;20531;-74
2021/01/10 04:42:54;;;;;;;33.90;20.77;;;6.90;99.20;;;;;;5053208;28;20577;-72
2021/01/10 04:45:21;;;;;;;33.90;20.57;;;6.90;99.20;;;;;;5053873;28;20182;-72
2021/01/10 04:47:46;;;;;;;31.27;19.83;;;6.90;99.10;;;;;;5052846;28;21255;-73
2021/01/10 04:50:13;;;;;;;29.77;18.47;;;6.90;99.20;;;;;;5053806;28;20499;-72
2021/01/10 04:52:41;;;;;;;31.67;19.87;;;6.90;99.10;;;;;;5052966;28;20499;-73
2021/01/10 04:55:08;;;;;;;35.30;19.40;;;6.90;99.20;;;;;;5053531;28;20448;-72
2021/01/10 04:57:34;;;;;;;36.57;20.37;;;6.90;99.20;;;;;;5052907;28;20439;-73
2021/01/10 05:00:01;;;;;;;29.83;19.02;;;6.90;99.10;;;;;;5085745;28;20906;-73
2021/01/10 05:02:32;;;;;;;31.58;19.08;;;6.90;99.10;;;;;;5065113;28;20652;-74
2021/01/10 05:04:58;;;;;;;30.17;19.53;;;6.90;99.20;;;;;;5033891;28;20171;-72
2021/01/10 05:07:25;;;;;;;39.33;20.48;;;6.90;99.20;;;;;;5033550;28;20471;-72
2021/01/10 05:09:52;;;;;;;30.75;19.92;;;6.90;99.30;;;;;;5032681;28;20251;-72
2021/01/10 05:12:17;;;;;;;31.33;19.93;;;6.90;99.30;;;;;;5033719;28;20210;-72
2021/01/10 05:14:43;;;;;;;31.07;18.73;;;6.90;99.20;;;;;;5036051;28;20456;-73
2021/01/10 05:17:21;;;;;;;30.20;18.10;;;6.90;99.10;;;;;;5053218;28;20206;-72
2021/01/10 05:19:48;;;;;;;31.48;19.27;;;6.90;99.50;;;;;;5052108;28;20174;-72
2021/01/10 05:22:15;;;;;;;36.70;19.80;;;6.90;99.00;;;;;;5053182;28;20166;-72
2021/01/10 05:24:42;;;;;;;27.35;17.08;;;6.80;99.00;;;;;;5052061;28;20236;-74
2021/01/10 05:27:09;;;;;;;31.50;19.33;;;6.80;99.30;;;;;;5052956;28;20186;-74
2021/01/10 05:29:35;;;;;;;35.00;19.27;;;6.80;99.30;;;;;;5052154;28;20539;-75
2021/01/10 05:32:02;;;;;;;28.80;17.33;;;6.90;99.20;;;;;;5051908;28;20175;-73
2021/01/10 05:34:28;;;;;;;27.83;18.50;;;6.80;99.00;;;;;;5051578;28;20642;-74
2021/01/10 05:36:56;;;;;;;28.27;16.90;;;6.80;99.10;;;;;;5052160;28;20255;-74
2021/01/10 05:39:23;;;;;;;26.67;18.20;;;6.90;99.20;;;;;;5052922;28;20460;-73
2021/01/10 05:41:55;;;;;;;31.90;18.93;;;6.80;99.20;;;;;;5052390;28;20178;-74
2021/01/10 05:44:23;;;;;;;27.63;17.73;;;6.80;99.30;;;;;;5052643;28;20425;-74
2021/01/10 05:47:00;;;;;;;31.35;17.92;;;6.80;99.30;;;;;;5051771;28;20269;-74
2021/01/10 05:49:26;;;;;;;29.10;17.02;;;6.80;99.50;;;;;;5051667;28;20228;-73
2021/01/10 05:51:53;;;;;;;31.83;18.47;;;6.80;99.60;;;;;;5051588;28;20266;-74
2021/01/10 05:54:52;;;;;;;26.55;16.45;;;6.80;99.60;;;;;;5052795;28;20865;-74
2021/01/10 05:57:26;;;;;;;29.17;18.13;;;6.80;99.60;;;;;;5048285;28;20233;-74
2021/01/10 05:59:54;;;;;;;35.65;19.48;;;6.80;99.60;;;;;;5051597;28;20170;-74
2021/01/10 06:02:31;;;;;;;30.35;20.13;;;6.70;99.50;;;;;;5052519;28;20186;-74
2021/01/10 06:05:10;;;;;;;31.70;18.00;;;6.80;99.60;;;;;;5067306;28;20235;-74
2021/01/10 06:07:36;;;;;;;32.20;18.95;;;6.70;99.50;;;;;;5050441;28;20393;-74
2021/01/10 06:10:03;;;;;;;33.88;19.92;;;6.80;99.70;;;;;;5052474;28;20227;-74
2021/01/10 06:12:29;;;;;;;28.13;18.55;;;6.80;99.50;;;;;;5084479;28;20533;-74
2021/01/10 06:15:15;;;;;;;30.47;18.43;;;6.80;99.70;;;;;;5050979;28;20177;-74
2021/01/10 06:17:48;;;;;;;33.13;19.43;;;6.80;99.40;;;;;;5051570;28;20180;-74
2021/01/10 06:20:34;;;;;;;33.17;18.77;;;6.80;99.20;;;;;;5051790;28;20982;-74
2021/01/10 06:23:06;;;;;;;32.73;17.83;;;6.80;99.10;;;;;;5051944;28;20192;-74
2021/01/10 06:25:34;;;;;;;30.80;19.40;;;6.80;99.30;;;;;;5052289;28;20432;-74
2021/01/10 06:28:13;;;;;;;30.73;18.30;;;6.90;99.30;;;;;;5083447;28;20891;-73
2021/01/10 06:30:58;;;;;;;33.88;18.70;;;6.90;99.30;;;;;;5050860;28;20420;-74
2021/01/10 06:33:33;;;;;;;31.60;19.50;;;6.90;99.10;;;;;;5052120;28;20175;-74
2021/01/10 06:36:04;;;;;;;31.07;18.23;;;6.90;98.90;;;;;;5051238;28;20589;-74
2021/01/10 06:38:37;;;;;;;30.27;19.02;;;6.90;98.90;;;;;;5051274;28;20460;-74
2021/01/10 06:41:41;;;;;;;28.77;18.58;;;6.90;99.10;;;;;;5051875;28;20174;-74
2021/01/10 06:44:09;;;;;;;25.70;18.08;;;6.90;99.10;;;;;;5052068;28;20634;-74
2021/01/10 06:46:35;;;;;;;29.67;17.00;;;6.90;99.10;;;;;;5051702;28;20189;-75
2021/01/10 06:49:01;;;;;;;32.15;17.73;;;6.90;99.10;;;;;;5083743;28;20174;-74
2021/01/10 06:51:30;;;;;;;35.22;19.60;;;6.90;99.20;;;;;;5051529;28;20247;-73
2021/01/10 06:53:56;;;;;;;34.25;18.50;;;6.90;99.10;;;;;;5051253;28;20219;-74
2021/01/10 06:56:23;;;;;;;33.88;18.90;;;6.90;99.00;;;;;;5052010;28;20214;-73
2021/01/10 06:59:02;;;;;;;34.05;18.25;;;6.90;98.80;;;;;;5051059;28;20178;-74
2021/01/10 07:01:58;;;;;;;27.87;17.23;;;6.90;98.80;;;;;;5051508;28;20182;-73
2021/01/10 07:04:37;;;;;;;30.38;17.83;;;6.90;98.90;;;;;;5051297;28;20416;-76
2021/01/10 07:07:03;;;;;;;32.37;17.80;;;6.90;99.10;;;;;;5051570;28;20246;-74
2021/01/10 07:09:53;;;;;;;34.23;18.23;;;6.90;99.10;;;;;;5051228;28;20427;-74
2021/01/10 07:12:22;;;;;;;34.13;18.07;;;6.90;99.20;;;;;;5051183;28;20424;-75
2021/01/10 07:14:48;;;;;;;32.90;17.67;;;6.80;99.20;;;;;;5050858;28;20473;-75
2021/01/10 07:17:16;;;;;;;28.23;18.40;;;6.80;99.20;;;;;;5051605;28;21011;-75
2021/01/10 07:19:44;;;;;;;25.90;17.30;;;6.90;99.10;;;;;;5050413;28;20918;-75
2021/01/10 07:22:26;;;;;;;28.23;18.20;;;6.80;99.00;;;;;;5051881;28;20740;-75
2021/01/10 07:24:52;;;;;;;29.48;18.30;;;6.80;99.10;;;;;;5054349;28;20755;-75
2021/01/10 07:27:29;;;;;;;26.63;17.70;;;6.80;99.20;;;;;;5064953;28;20193;-74
2021/01/10 07:29:55;;;;;;;27.02;19.25;;;6.80;99.40;;;;;;5066571;28;20523;-75
2021/01/10 07:32:33;;;;;;;29.63;17.90;;;6.80;99.50;;;;;;5054648;28;20250;-75
2021/01/10 07:35:00;;;;;;;29.98;17.27;;;6.80;99.50;;;;;;5053224;28;20385;-75
2021/01/10 07:37:29;;;;;;;29.40;17.53;;;6.80;99.40;;;;;;5055257;28;20174;-75
2021/01/10 07:40:19;;;;;;;25.23;17.77;;;6.80;99.30;;;;;;5034164;28;20861;-75
2021/01/10 07:42:44;;;;;;;28.63;17.93;;;6.80;99.30;;;;;;5044690;28;20462;-75
2021/01/10 07:45:17;;;;;;;32.20;19.43;;;6.90;99.50;;;;;;5055350;28;20425;-75
2021/01/10 07:47:45;;;;;;;28.83;17.67;;;6.80;99.40;;;;;;5054864;28;20208;-76
2021/01/10 07:50:17;;;;;;;27.52;17.65;;;6.70;99.60;;;;;;5054945;28;20200;-75
2021/01/10 07:52:45;;;;;;;27.53;16.70;;;6.70;99.70;;;;;;5053999;28;20621;-75
2021/01/10 07:55:20;;;;;;;26.67;17.08;;;6.70;99.90;;;;;;5055098;28;20963;-74
2021/01/10 07:57:46;;;;;;;27.52;18.10;;;6.80;99.90;;;;;;5054163;28;20689;-74
2021/01/10 08:00:18;;;;;;;25.80;17.15;;;6.80;99.80;;;;;;5054509;28;20184;-74
2021/01/10 08:02:48;;;;;;;30.85;18.45;;;6.80;99.80;;;;;;5053221;28;20641;-75
2021/01/10 08:05:18;;;;;;;46.72;26.67;;;6.80;99.90;;;;;;5061883;28;20180;-74
2021/01/10 08:08:17;;;;;;;112.38;56.00;;;6.70;99.90;;;;;;5054338;28;20166;-75
2021/01/10 08:10:45;;;;;;;41.57;24.47;;;6.70;99.90;;;;;;5026209;28;20205;-76
2021/01/10 08:13:29;;;;;;;33.55;19.02;;;6.70;99.90;;;;;;5040719;28;20387;-75
2021/01/10 08:16:06;;;;;;;31.35;17.70;;;6.80;99.90;;;;;;5053720;28;20205;-75
2021/01/10 08:18:36;;;;;;;30.05;16.35;;;6.80;99.90;;;;;;5054625;28;20173;-75
2021/01/10 08:21:10;;;;;;;28.77;17.83;;;6.80;99.90;;;;;;5052246;28;20253;-75
2021/01/10 08:23:38;;;;;;;23.40;16.63;;;6.80;99.90;;;;;;5054501;28;20249;-75
2021/01/10 08:26:03;;;;;;;25.02;17.10;;;6.80;99.90;;;;;;5052565;28;20194;-75
2021/01/10 08:28:33;;;;;;;395.70;205.03;;;6.80;99.90;;;;;;5054592;28;20178;-75
2021/01/10 08:31:04;;;;;;;207.80;105.82;;;6.90;99.90;;;;;;5053090;28;20180;-74
2021/01/10 08:33:30;;;;;;;39.93;25.63;;;7.00;99.90;;;;;;5053278;28;20177;-75
2021/01/10 08:36:16;;;;;;;28.73;18.63;;;7.00;99.90;;;;;;5054362;28;20452;-74
2021/01/10 08:38:50;;;;;;;32.73;18.30;;;6.90;99.80;;;;;;5059131;28;20435;-77
2021/01/10 08:41:25;;;;;;;26.63;17.90;;;6.90;99.80;;;;;;5044009;28;20399;-74
2021/01/10 08:43:53;;;;;;;27.20;18.47;;;6.90;99.90;;;;;;5051960;28;20912;-74
2021/01/10 08:46:19;;;;;;;29.47;17.70;;;6.90;99.90;;;;;;5053606;28;20421;-72
2021/01/10 08:48:46;;;;;;;32.70;17.50;;;6.90;99.90;;;;;;5052765;28;21023;-74
2021/01/10 08:51:34;;;;;;;28.38;17.73;;;6.90;99.90;;;;;;5086170;28;20950;-72
2021/01/10 08:54:02;;;;;;;27.65;17.50;;;6.90;99.90;;;;;;5052498;28;20182;-72
2021/01/10 08:56:31;;;;;;;70.57;40.23;;;6.80;99.90;;;;;;5058575;28;20232;-72
2021/01/10 08:58:57;;;;;;;401.95;206.73;;;6.80;99.90;;;;;;5051465;28;20442;-73
2021/01/10 09:01:25;;;;;;;42.93;24.80;;;6.90;99.90;;;;;;5061892;28;20712;-72
2021/01/10 09:04:13;;;;;;;29.30;16.37;;;6.90;99.90;;;;;;5058639;28;20423;-73
2021/01/10 09:06:57;;;;;;;26.57;16.00;;;7.00;99.90;;;;;;5058679;28;20851;-73
2021/01/10 09:09:25;;;;;;;23.43;15.67;;;7.00;99.60;;;;;;5059220;28;20829;-72
2021/01/10 09:12:00;;;;;;;26.20;16.43;;;7.00;99.60;;;;;;5063652;28;20864;-72
2021/01/10 09:14:31;;;;;;;24.00;15.45;;;7.10;99.70;;;;;;5060620;28;20415;-72
2021/01/10 09:16:59;;;;;;;28.60;16.57;;;7.10;99.50;;;;;;5056617;28;20675;-71
2021/01/10 09:19:26;;;;;;;27.60;15.97;;;7.10;99.30;;;;;;5061210;28;20452;-71
2021/01/10 09:21:52;;;;;;;26.23;17.63;;;7.20;99.00;;;;;;5058579;28;20958;-72
2021/01/10 09:24:18;;;;;;;27.90;17.03;;;7.20;98.90;;;;;;5061934;28;20478;-72
2021/01/10 09:26:44;;;;;;;29.43;17.10;;;7.20;98.90;;;;;;5043801;28;20237;-73
2021/01/10 09:29:19;;;;;;;23.63;15.80;;;7.20;98.90;;;;;;5058929;28;20417;-72
2021/01/10 09:31:49;;;;;;;27.77;18.10;;;7.20;99.00;;;;;;5059012;28;20421;-74
2021/01/10 09:34:15;;;;;;;28.17;16.80;;;7.20;98.80;;;;;;5058188;28;20820;-72
2021/01/10 09:36:42;;;;;;;23.83;15.60;;;7.30;98.80;;;;;;5060683;28;20785;-72
2021/01/10 09:39:08;;;;;;;27.37;17.67;;;7.20;98.60;;;;;;5060792;28;20452;-72
2021/01/10 09:41:56;;;;;;;29.10;16.60;;;7.30;99.00;;;;;;5058619;28;20771;-71
2021/01/10 09:44:21;;;;;;;24.63;16.73;;;7.30;98.90;;;;;;5059012;28;20924;-72
2021/01/10 09:46:53;;;;;;;30.60;17.40;;;7.30;98.80;;;;;;5061072;28;20631;-73
2021/01/10 09:49:25;;;;;;;22.50;16.03;;;7.40;98.90;;;;;;5061707;28;20198;-72
2021/01/10 09:51:53;;;;;;;26.03;18.00;;;7.40;98.80;;;;;;5057147;28;20461;-72
2021/01/10 09:54:26;;;;;;;23.37;15.07;;;7.40;98.40;;;;;;5058377;28;20479;-72
2021/01/10 09:57:00;;;;;;;27.13;16.47;;;7.40;98.80;;;;;;5059862;28;20514;-72
2021/01/10 09:59:39;;;;;;;26.57;16.80;;;7.40;99.00;;;;;;5059372;28;20425;-72
2021/01/10 10:02:08;;;;;;;27.40;15.50;;;7.50;99.00;;;;;;5061538;28;20417;-75
2021/01/10 10:04:33;;;;;;;24.17;15.80;;;7.40;98.70;;;;;;5060217;28;20388;-74
2021/01/10 10:06:59;;;;;;;26.97;15.43;;;7.50;99.20;;;;;;5054658;28;20480;-75
2021/01/10 10:09:44;;;;;;;31.97;15.83;;;7.50;99.10;;;;;;5062036;28;20182;-75
2021/01/10 10:12:11;;;;;;;25.53;16.13;;;7.50;99.10;;;;;;5060334;28;20401;-75
2021/01/10 10:14:36;;;;;;;22.93;15.30;;;7.60;99.20;;;;;;5060795;28;20417;-75
2021/01/10 10:17:02;;;;;;;22.73;15.30;;;7.50;98.80;;;;;;5060669;28;20763;-72
2021/01/10 10:19:28;;;;;;;20.23;13.53;;;7.50;98.70;;;;;;5059668;28;20187;-72
2021/01/10 10:21:54;;;;;;;561.17;318.00;;;7.50;98.50;;;;;;5058983;28;20174;-72
2021/01/10 10:24:19;;;;;;;244.67;113.20;;;7.60;98.20;;;;;;5054661;28;20202;-72
2021/01/10 10:26:45;;;;;;;32.63;20.50;;;7.60;98.30;;;;;;5070346;28;20200;-74
2021/01/10 10:29:11;;;;;;;19.20;14.37;;;7.60;98.10;;;;;;5035443;28;20175;-75
2021/01/10 10:31:37;;;;;;;21.57;14.70;;;7.80;99.90;;;;;;5054323;28;20172;-75
2021/01/10 10:34:03;;;;;;;23.37;14.23;;;8.30;99.90;;;;;;5050866;28;20248;-76
2021/01/10 10:36:28;;;;;;;18.17;13.17;;;8.70;99.90;;;;;;5051872;28;20208;-74
2021/01/10 10:38:54;;;;;;;21.60;14.33;;;9.10;99.90;;;;;;5049477;28;20459;-75
2021/01/10 10:41:20;;;;;;;17.87;11.90;;;9.50;99.90;;;;;;5052019;28;20185;-75
2021/01/10 10:43:46;;;;;;;17.83;12.37;;;9.80;99.90;;;;;;5050500;28;20181;-78
2021/01/10 10:46:11;;;;;;;19.07;12.40;;;10.20;99.90;;;;;;5057203;28;20184;-76
2021/01/10 10:48:37;;;;;;;18.43;12.40;;;10.50;99.90;;;;;;5054323;28;20213;-75
2021/01/10 10:51:03;;;;;;;22.13;13.43;;;10.60;99.00;;;;;;5051189;28;20180;-75
2021/01/10 10:53:29;;;;;;;18.87;13.80;;;10.80;98.20;;;;;;5051076;28;20209;-75
2021/01/10 10:55:55;;;;;;;17.47;14.20;;;11.00;97.10;;;;;;5050490;28;20489;-75
2021/01/10 10:58:20;;;;;;;19.73;13.30;;;11.10;96.90;;;;;;5051031;28;20298;-75
2021/01/10 11:00:46;;;;;;;15.73;13.30;;;11.30;96.60;;;;;;5057674;28;20182;-75
2021/01/10 11:03:12;;;;;;;18.37;14.23;;;11.50;96.30;;;;;;5061465;28;20629;-75
2021/01/10 11:05:38;;;;;;;17.90;13.70;;;11.60;95.70;;;;;;5065033;28;20636;-75
2021/01/10 11:08:05;;;;;;;17.83;14.07;;;11.70;94.90;;;;;;5058389;28;20187;-75
2021/01/10 11:10:30;;;;;;;17.70;13.40;;;11.80;93.70;;;;;;5054342;28;20529;-75
2021/01/10 11:12:56;;;;;;;17.67;12.27;;;11.90;94.00;;;;;;5055208;28;20486;-75
2021/01/10 11:15:22;;;;;;;17.67;13.40;;;11.90;92.90;;;;;;5054307;28;20470;-75
2021/01/10 11:17:48;;;;;;;18.10;13.67;;;12.00;93.60;;;;;;5055589;28;20186;-77
2021/01/10 11:20:14;;;;;;;88.63;61.73;;;12.00;92.90;;;;;;5054657;28;20426;-74
2021/01/10 11:22:41;;;;;;;187.77;120.87;;;12.10;93.60;;;;;;5054641;28;20185;-75
2021/01/10 11:25:07;;;;;;;49.83;34.17;;;12.10;93.60;;;;;;5055111;28;20188;-75
2021/01/10 11:27:33;;;;;;;23.43;17.07;;;12.20;92.80;;;;;;5055343;28;20446;-75
2021/01/10 11:29:59;;;;;;;17.83;13.73;;;12.30;92.70;;;;;;5054317;28;20419;-76
2021/01/10 11:32:25;;;;;;;19.60;14.13;;;12.30;92.20;;;;;;5054891;28;20417;-75
2021/01/10 11:34:51;;;;;;;17.90;13.20;;;12.30;91.70;;;;;;5056016;28;20416;-78
2021/01/10 11:37:17;;;;;;;18.97;13.73;;;12.30;92.30;;;;;;5060433;28;20452;-75
2021/01/10 11:39:43;;;;;;;17.70;13.93;;;12.40;92.30;;;;;;5053241;28;20456;-74
2021/01/10 11:42:13;;;;;;;18.13;14.67;;;12.40;92.50;;;;;;5086724;28;20488;-75
2021/01/10 11:44:39;;;;;;;19.73;13.67;;;12.50;92.40;;;;;;5055208;28;20173;-75
2021/01/10 11:47:05;;;;;;;17.43;13.67;;;12.50;91.70;;;;;;5086540;28;20428;-75
2021/01/10 11:49:36;;;;;;;20.20;13.50;;;12.50;92.60;;;;;;5054384;28;20752;-76
2021/01/10 11:52:02;;;;;;;17.37;13.20;;;12.60;91.90;;;;;;5054060;28;20169;-76
2021/01/10 11:54:28;;;;;;;14.97;12.03;;;12.60;91.50;;;;;;5053701;28;20419;-76
2021/01/10 11:56:54;;;;;;;18.40;12.97;;;12.70;91.80;;;;;;5054247;28;20208;-78
2021/01/10 11:59:19;;;;;;;14.33;10.67;;;12.60;91.40;;;;;;5053365;28;20268;-77
2021/01/10 12:01:45;;;;;;;16.60;12.63;;;12.60;91.10;;;;;;5054281;28;20181;-76
2021/01/10 12:04:11;;;;;;;14.50;10.73;;;12.60;90.20;;;;;;5053734;28;21047;-75
2021/01/10 12:06:39;;;;;;;13.60;10.97;;;12.60;89.60;;;;;;5053249;28;20438;-73
2021/01/10 12:09:13;;;;;;;15.90;12.10;;;12.60;88.30;;;;;;5053440;28;20428;-76
2021/01/10 12:11:40;;;;;;;12.97;11.47;;;12.60;92.20;;;;;;5053825;28;20546;-75
2021/01/10 12:14:06;;;;;;;12.20;10.13;;;12.60;91.30;;;;;;5053404;28;20423;-75
2021/01/10 12:16:34;;;;;;;12.60;10.57;;;12.60;90.50;;;;;;5073205;28;20466;-76
2021/01/10 12:19:00;;;;;;;15.77;11.40;;;12.60;90.50;;;;;;5052783;28;20425;-76
2021/01/10 12:21:25;;;;;;;13.83;10.70;;;12.60;89.80;;;;;;5062230;28;20897;-76
2021/01/10 12:23:51;;;;;;;15.00;11.20;;;12.60;90.10;;;;;;5054450;28;20536;-75
2021/01/10 12:26:17;;;;;;;13.43;10.70;;;12.40;88.30;;;;;;5053492;28;20256;-76
2021/01/10 12:28:45;;;;;;;13.03;10.67;;;12.40;88.90;;;;;;5054304;28;20248;-75
2021/01/10 12:31:11;;;;;;;11.60;10.30;;;12.40;87.80;;;;;;5053190;28;20412;-75
2021/01/10 12:33:39;;;;;;;10.40;9.30;;;12.40;89.20;;;;;;5054007;28;20419;-74
2021/01/10 12:36:05;;;;;;;10.87;9.67;;;12.50;88.70;;;;;;5053313;28;20463;-77
2021/01/10 12:38:31;;;;;;;113.27;74.30;;;12.50;87.60;;;;;;5052096;28;20534;-75
2021/01/10 12:40:57;;;;;;;121.67;85.20;;;12.60;88.60;;;;;;5053515;28;20521;-75
2021/01/10 12:43:23;;;;;;;20.87;17.13;;;12.60;87.50;;;;;;5056905;28;20415;-75
2021/01/10 12:45:49;;;;;;;12.50;10.50;;;12.60;86.70;;;;;;5053512;28;20187;-74
2021/01/10 12:48:17;;;;;;;12.40;11.20;;;12.70;87.60;;;;;;5052877;28;20222;-75